Aérodrome :
LOGIN :

S'inscrire | Disclaimer

   EN    FR    IT 

 










Légende :    VFR   VFR Marginal   IFR   IFR Intensif   IFR Très Intensif
Visi : 
Plafond : 
>= 8 km
>= 3000ft
5 à 8 km
1000 à 3000 ft
1500m à 5 km
500 à 1000 ft
800 à 1500m
200 à 500 ft
< 800m
< 200 ft
Symboles :   Orages  Brouillard  Fortes neiges  Fortes précipitations  Vent > 20 kt
SIGMETs :   Divers  Orages  Givrage  Turbulence  Onde Orograph.  Cendres Volcan.







- Altitude de l'aérodrome : 1682 ft
- Code IATA : VIT


LEVT - Vitoria Gasteiz

DERNIER METAR :
  • 230330Z 00000KT 9999 BCFG FEW005 11/10 Q1019

METARs EXPIRÉS :
  • 230300Z 00000KT 9000 BCFG FEW007 11/10 Q1019
  • 230230Z 00000KT 9000 BCFG FEW007 10/10 Q1019
  • 230211Z 00000KT 9000 R04/0700D BCFG SCT007 11/10 Q1020
  • 230200Z 00000KT 6000 BKN007 11/10 Q1020
  • 230130Z 00000KT 9999 FEW010 11/11 Q1020
  • 230100Z VRB01KT CAVOK 11/11 Q1020

TAF TAF LEVT
Valide du 23 à 00h jusqu'au 24 à 00h UTC


222300Z 2300/2324 VRB04KT 9999 FEW030 TX30/2314Z TN12/2306Z
PROB40
TEMPO 2300/2308 1500 BCFG BKN005
PROB40
TEMPO 2300/2307 0350 FG VV001
PROB30
TEMPO 2312/2318 SCT035TCU
PROB40
TEMPO 2316/2320 04010KT
Pas de NOTAMs connus pour ce terrain.



MET'MAP, la Météo Aéronautique d'un coup d'oeil ! - Copyright ORBIFLY Décembre 2007 - Disclaimer

ORBIFLY MET'MAP TEAM :

Programmation & Développement : Alexandra Zaïnal
Conception & Développement : Baudouin d'Aumeries
Co-Programmation & Développement : Marc-Olivier Méhu
Soutien technique & logistique : Manuel Goepfert

Contact : metmap@orbifly.com




SOURCES & CREDITS :

   NOAA